Impacts TAF Board
For situational awareness. Not to be used for flight planning purposes.
IDs:

KJFK - New York/Kennedy Int, NY, US

Issued at 1916 UTC 20 Oct 2018
Updated at 2200 UTC 20 Oct 2018
Potential Impact None Slight Moderate High
Time<<21/10Z 21/11Z 21/12Z 21/13Z 21/14Z 21/15Z 21/16Z 21/17Z 21/18Z 21/19Z 21/20Z 21/21Z 21/22Z>>
Type PRVL PRVL PRVL PRVL PRVL PRVL PRVL PRVL PRVL PRVL PRVL PRVL PRVL
VIS >6 >6 >6 >6 >6 >6 >6 >6 >6 >6 >6 >6 >6
CIG 60 60 60 60 -- -- -- -- 50 50 50 50 50
Cover BKN BKN BKN BKN SCT SCT SCT SCT BKN BKN BKN BKN BKN
FltCat VFR VFR VFR VFR VFR VFR VFR VFR VFR VFR VFR VFR VFR
WX -- -- -- -- -- -- -- -- -- -- -- -- --
WDir 300 300 300 300 330 330 330 330 330 330 330 330 330
WSpd 13 13 13 13 23 23 23 23 23 23 23 23 23
WGst 25 25 25 25 32 32 32 32 33 33 33 33 33
Raw TAF
KJFK 201916Z 2019/2124 27015KT P6SM SCT025 BKN035 BKN060
  FM202200 27013KT P6SM SCT035 BKN060 BKN150
  FM210100 28012KT P6SM BKN060
  FM210600 28010KT P6SM VCSH SCT025 BKN060
  FM210900 30013G25KT P6SM SCT025 BKN060 BKN150
  FM211400 33023G32KT P6SM FEW060 SCT150
  FM211800 33023G33KT P6SM BKN050


METAR Board
Radar Display
Forecast Discussion
For situational awareness. Not to be used for flight planning purposes.